MSC Annamaria — H3HN — position and weather

sailwx.info

Track history (hours):
 
Tides and Currents Weather Stations Pressure Air Temp Water Temp Dewpoint Dewpoint Depression Visibility Wind Speed Wind Dir Waves Ship Positions

MSC Annamaria

Last reported at 2017-Jun-29 01:38 UTC. Time now 2017-Jun-29 02:25 UTC.
Position N 33°57' E 035°34'.

Length 188 m; draft 6.5 m.

Type: Ship (hazmat cat A). MMSI: 353852000.

Date/timePositionNaut miles runAvg speedWind from/ knotsBaromVisibWave heightAir tempDewpointWater temp
2017-Jun-29 01:38N 33°57' E 035°34'0 0.0
2017-Jun-29 01:15N 33°57' E 035°34'0 0.1
2017-Jun-29 00:54N 33°57' E 035°34'4 2.9
2017-Jun-28 23:35N 33°56' E 035°29'113.6
2017-Jun-28 23:30N 33°56' E 035°28'714.2
2017-Jun-28 23:00N 33°55' E 035°20'814.0
2017-Jun-28 22:27N 33°56' E 035°10'714.3
2017-Jun-28 21:59N 33°59' E 035°03'714.3
2017-Jun-28 21:30N 34°01' E 034°55'714.1
2017-Jun-28 21:00N 34°04' E 034°48'714.2
2017-Jun-28 20:30N 34°07' E 034°40'714.2
2017-Jun-28 20:01N 34°09' E 034°32'714.4
2017-Jun-28 19:30N 34°12' E 034°24'714.9
2017-Jun-28 19:01N 34°15' E 034°15'815.0
2017-Jun-28 18:30N 34°18' E 034°07'715.0
2017-Jun-28 18:00N 34°21' E 033°58'714.9
2017-Jun-28 17:30N 34°23' E 033°50'815.0
2017-Jun-28 17:00N 34°26' E 033°42'815.1
2017-Jun-28 16:30N 34°29' E 033°33'715.0
2017-Jun-28 16:00N 34°32' E 033°25'815.1
2017-Jun-28 15:30N 34°35' E 033°16'815.1
2017-Jun-28 15:00N 34°38' E 033°08'611.2
2017-Jun-28 14:30N 34°39' E 033°01'0 0.2
2017-Jun-28 13:28N 34°39' E 033°01'0 0.0
2017-Jun-28 12:59N 34°39' E 033°01'0 0.0
2017-Jun-28 12:27N 34°39' E 033°01'0 0.0
2017-Jun-28 11:53N 34°39' E 033°01'0 0.0
2017-Jun-28 11:30N 34°39' E 033°01'0 0.0
2017-Jun-28 10:59N 34°39' E 033°01'0 0.0
2017-Jun-28 10:29N 34°39' E 033°01'0 0.0
2017-Jun-28 09:59N 34°39' E 033°01'0 0.0
2017-Jun-28 09:28N 34°39' E 033°01'0 0.0
2017-Jun-28 09:00N 34°39' E 033°01'0 0.0
2017-Jun-28 08:27N 34°39' E 033°01'0 0.0
2017-Jun-28 07:59N 34°39' E 033°01'0 0.0
2017-Jun-28 07:30N 34°39' E 033°01'0 0.0
2017-Jun-28 06:59N 34°39' E 033°01'0 0.0
2017-Jun-28 06:27N 34°39' E 033°01'0 0.0
2017-Jun-28 05:53N 34°39' E 033°01'0 0.0
2017-Jun-28 05:30N 34°39' E 033°01'0 0.1
2017-Jun-28 05:00N 34°39' E 033°01'2 3.8
2017-Jun-28 04:31N 34°39' E 033°03'3 7.0
2017-Jun-28 04:00N 34°36' E 033°05'6 9.6
2017-Jun-28 03:24N 34°32' E 033°01'513.3
2017-Jun-28 03:00N 34°32' E 032°54'713.7
2017-Jun-28 02:30N 34°34' E 032°46'713.3
2017-Jun-28 02:00N 34°36' E 032°38'713.2
2017-Jun-28 01:30N 34°38' E 032°31'713.5
2017-Jun-28 01:00N 34°39' E 032°23'813.9
2017-Jun-28 00:26N 34°42' E 032°13'2813.9
2017-Jun-27 22:23N 34°50' E 031°40'513.6
2017-Jun-27 22:00N 34°51' E 031°34'713.6
2017-Jun-27 21:30N 34°53' E 031°26'713.5
2017-Jun-27 21:00N 34°55' E 031°18'913.5
2017-Jun-27 20:18N 34°58' E 031°07'413.7
2017-Jun-27 19:59N 34°59' E 031°02'713.8
2017-Jun-27 19:30N 35°00' E 030°54'35713.3
2017-Jun-26 16:33N 37°04' E 024°00'113.8
2017-Jun-26 16:30N 37°05' E 023°60'1013.5
2017-Jun-26 15:46N 37°14' E 023°55'413.6
2017-Jun-26 15:27N 37°18' E 023°53'1413.3
2017-Jun-26 14:25N 37°31' E 023°47'1212.8
2017-Jun-26 13:30N 37°42' E 023°41'713.0
2017-Jun-26 13:00N 37°48' E 023°38'612.5
2017-Jun-26 12:30N 37°54' E 023°37'4 7.2
2017-Jun-26 12:00N 37°57' E 023°36'0 0.4
2017-Jun-26 11:28N 37°57' E 023°36'0 0.0
2017-Jun-26 11:00N 37°57' E 023°36'0 0.0
2017-Jun-26 10:27N 37°57' E 023°36'0 0.0
2017-Jun-26 09:58N 37°57' E 023°36'0 0.0
2017-Jun-26 09:26N 37°57' E 023°36'0 0.0
2017-Jun-26 08:57N 37°57' E 023°36'0 0.0
2017-Jun-26 08:30N 37°57' E 023°36'0 0.0
2017-Jun-26 07:58N 37°57' E 023°36'0 0.0
2017-Jun-26 07:29N 37°57' E 023°36'0 0.0
2017-Jun-26 06:59N 37°57' E 023°36'0 0.0
2017-Jun-26 06:29N 37°57' E 023°36'0 0.0
2017-Jun-26 06:00N 37°57' E 023°36'0 0.0
2017-Jun-26 05:27N 37°57' E 023°36'0 0.0
2017-Jun-26 05:00N 37°57' E 023°36'0 0.0
2017-Jun-26 04:30N 37°57' E 023°36'0 0.0
2017-Jun-26 03:59N 37°57' E 023°36'0 0.0
2017-Jun-26 03:29N 37°57' E 023°36'0 0.0
2017-Jun-26 02:57N 37°57' E 023°36'0 0.0
2017-Jun-26 02:30N 37°57' E 023°36'0 0.0
2017-Jun-26 01:59N 37°57' E 023°36'0 0.0
2017-Jun-26 01:26N 37°57' E 023°36'0 0.0
2017-Jun-26 00:59N 37°57' E 023°36'0 0.0
2017-Jun-26 00:30N 37°57' E 023°36'0 0.0
2017-Jun-25 23:56N 37°57' E 023°36'0 0.0
2017-Jun-25 23:28N 37°57' E 023°36'0 0.0
2017-Jun-25 22:59N 37°57' E 023°36'0 0.0
2017-Jun-25 22:28N 37°57' E 023°36'0 0.0
2017-Jun-25 21:58N 37°57' E 023°36'0 0.0
2017-Jun-25 21:30N 37°57' E 023°36'0 0.0
2017-Jun-25 21:00N 37°57' E 023°36'0 0.0
2017-Jun-25 20:28N 37°57' E 023°36'0 0.0
2017-Jun-25 19:59N 37°57' E 023°36'0 0.0
2017-Jun-25 19:28N 37°57' E 023°36'0 0.0
2017-Jun-25 18:54N 37°57' E 023°36'0 0.0
2017-Jun-25 18:28N 37°57' E 023°36'0 0.0
2017-Jun-25 18:00N 37°57' E 023°36'0 0.0
2017-Jun-25 17:29N 37°57' E 023°36'0 0.0
2017-Jun-25 17:00N 37°57' E 023°36'0 0.0
2017-Jun-25 16:29N 37°57' E 023°36'0 0.0
2017-Jun-25 16:00N 37°57' E 023°36'0 0.0
2017-Jun-25 15:30N 37°57' E 023°36'0 0.0
2017-Jun-25 14:58N 37°57' E 023°36'0 0.0
2017-Jun-25 14:30N 37°57' E 023°36'0 0.0
2017-Jun-25 13:28N 37°57' E 023°36'0 0.0
2017-Jun-25 12:58N 37°57' E 023°36'0 0.0
2017-Jun-25 12:28N 37°57' E 023°36'0 0.0
2017-Jun-25 12:00N 37°57' E 023°36'0 0.0
2017-Jun-25 11:26N 37°57' E 023°36'0 0.3
2017-Jun-25 11:00N 37°57' E 023°36'3 5.3
2017-Jun-25 10:30N 37°55' E 023°37'0 0.5
2017-Jun-25 10:00N 37°55' E 023°37'2 3.2
2017-Jun-25 09:30N 37°53' E 023°37'4 7.6
2017-Jun-25 09:00N 37°50' E 023°39'510.2
2017-Jun-25 08:30N 37°45' E 023°42'611.3
2017-Jun-25 08:00N 37°40' E 023°46'5 9.7
2017-Jun-25 07:30N 37°36' E 023°48'0 0.2
2017-Jun-25 07:00N 37°36' E 023°48'0 0.5
2017-Jun-25 06:30N 37°36' E 023°48'0 0.4
2017-Jun-25 06:00N 37°36' E 023°48'0 0.2
2017-Jun-25 05:30N 37°36' E 023°48'0 0.2
2017-Jun-25 05:00N 37°36' E 023°48'0 0.1
2017-Jun-25 04:30N 37°36' E 023°48'0 0.1
2017-Jun-25 04:00N 37°36' E 023°48'0 0.1
2017-Jun-25 03:30N 37°37' E 023°48'0 0.1
2017-Jun-25 03:00N 37°37' E 023°48'0 0.1
2017-Jun-25 02:30N 37°37' E 023°48'0 0.0
2017-Jun-25 02:01N 37°37' E 023°48'0 0.1
2017-Jun-25 01:27N 37°37' E 023°48'0 0.2
2017-Jun-25 01:00N 37°36' E 023°48'1 1.4
2017-Jun-25 00:30N 37°36' E 023°48'2213.0
2017-Jun-24 22:49N 37°15' E 023°56'32212.7
2017-Jun-23 21:24N 36°07' E 030°28'614.9
2017-Jun-23 21:00N 36°10' E 030°34'714.8
2017-Jun-23 20:30N 36°15' E 030°41'715.0
2017-Jun-23 20:01N 36°23' E 030°41'815.2
2017-Jun-23 19:30N 36°30' E 030°41'714.7
2017-Jun-23 19:01N 36°37' E 030°41'714.6
2017-Jun-23 18:31N 36°45' E 030°39'611.6
2017-Jun-23 18:00N 36°50' E 030°37'0 0.6
2017-Jun-23 17:28N 36°50' E 030°37'0 0.0
2017-Jun-23 16:58N 36°50' E 030°37'0 0.0
2017-Jun-23 16:28N 36°50' E 030°37'0 0.0
2017-Jun-23 15:58N 36°50' E 030°37'0 0.0
2017-Jun-23 15:28N 36°50' E 030°37'0 0.0
2017-Jun-23 15:00N 36°50' E 030°37'0 0.0
2017-Jun-23 14:00N 36°50' E 030°37'0 0.0
2017-Jun-23 13:30N 36°50' E 030°37'0 0.0
2017-Jun-23 13:00N 36°50' E 030°37'0 0.0
2017-Jun-23 12:30N 36°50' E 030°37'0 0.0
2017-Jun-23 12:00N 36°50' E 030°37'0 0.0
2017-Jun-23 11:30N 36°50' E 030°37'0 0.0
2017-Jun-23 11:00N 36°50' E 030°37'0 0.0
2017-Jun-23 10:30N 36°50' E 030°37'0 0.0
2017-Jun-23 10:00N 36°50' E 030°37'0 0.0
2017-Jun-23 09:30N 36°50' E 030°37'0 0.0
2017-Jun-23 09:00N 36°50' E 030°37'0 0.0
2017-Jun-23 08:30N 36°50' E 030°37'0 0.0
2017-Jun-23 08:00N 36°50' E 030°37'0 0.0
2017-Jun-23 07:30N 36°50' E 030°37'0 0.0
2017-Jun-23 07:00N 36°50' E 030°37'0 0.0
2017-Jun-23 06:30N 36°50' E 030°37'0 0.0
2017-Jun-23 06:00N 36°50' E 030°37'0 0.0
2017-Jun-23 05:24N 36°50' E 030°37'0 0.0
2017-Jun-23 05:00N 36°50' E 030°37'0 0.0
2017-Jun-23 04:28N 36°50' E 030°37'0 0.0
2017-Jun-23 03:58N 36°50' E 030°37'0 0.0
2017-Jun-22 23:08N 36°50' E 030°37'0 0.0
2017-Jun-22 22:59N 36°50' E 030°37'0 0.0
2017-Jun-22 22:29N 36°50' E 030°37'  
Track history (hours):
 
Tides and Currents Weather Stations Pressure Air Temp Water Temp Dewpoint Dewpoint Depression Visibility Wind Speed Wind Dir Waves Ship Positions

MSC Annamaria

Last reported at 2017-Jun-29 01:38 UTC. Time now 2017-Jun-29 02:25 UTC.
Position N 33°57' E 035°34'.

Length 188 m; draft 6.5 m.

Type: Ship (hazmat cat A). MMSI: 353852000.

Date/timePositionNaut miles runAvg speedWind from/ knotsBaromVisibWave heightAir tempDewpointWater temp
2017-Jun-29 01:38N 33°57' E 035°34'0 0.0
2017-Jun-29 01:15N 33°57' E 035°34'0 0.1
2017-Jun-29 00:54N 33°57' E 035°34'4 2.9
2017-Jun-28 23:35N 33°56' E 035°29'113.6
2017-Jun-28 23:30N 33°56' E 035°28'714.2
2017-Jun-28 23:00N 33°55' E 035°20'814.0
2017-Jun-28 22:27N 33°56' E 035°10'714.3
2017-Jun-28 21:59N 33°59' E 035°03'714.3
2017-Jun-28 21:30N 34°01' E 034°55'714.1
2017-Jun-28 21:00N 34°04' E 034°48'714.2
2017-Jun-28 20:30N 34°07' E 034°40'714.2
2017-Jun-28 20:01N 34°09' E 034°32'714.4
2017-Jun-28 19:30N 34°12' E 034°24'714.9
2017-Jun-28 19:01N 34°15' E 034°15'815.0
2017-Jun-28 18:30N 34°18' E 034°07'715.0
2017-Jun-28 18:00N 34°21' E 033°58'714.9
2017-Jun-28 17:30N 34°23' E 033°50'815.0
2017-Jun-28 17:00N 34°26' E 033°42'815.1
2017-Jun-28 16:30N 34°29' E 033°33'715.0
2017-Jun-28 16:00N 34°32' E 033°25'815.1
2017-Jun-28 15:30N 34°35' E 033°16'815.1
2017-Jun-28 15:00N 34°38' E 033°08'611.2
2017-Jun-28 14:30N 34°39' E 033°01'0 0.2
2017-Jun-28 13:28N 34°39' E 033°01'0 0.0
2017-Jun-28 12:59N 34°39' E 033°01'0 0.0
2017-Jun-28 12:27N 34°39' E 033°01'0 0.0
2017-Jun-28 11:53N 34°39' E 033°01'0 0.0
2017-Jun-28 11:30N 34°39' E 033°01'0 0.0
2017-Jun-28 10:59N 34°39' E 033°01'0 0.0
2017-Jun-28 10:29N 34°39' E 033°01'0 0.0
2017-Jun-28 09:59N 34°39' E 033°01'0 0.0
2017-Jun-28 09:28N 34°39' E 033°01'0 0.0
2017-Jun-28 09:00N 34°39' E 033°01'0 0.0
2017-Jun-28 08:27N 34°39' E 033°01'0 0.0
2017-Jun-28 07:59N 34°39' E 033°01'0 0.0
2017-Jun-28 07:30N 34°39' E 033°01'0 0.0
2017-Jun-28 06:59N 34°39' E 033°01'0 0.0
2017-Jun-28 06:27N 34°39' E 033°01'0 0.0
2017-Jun-28 05:53N 34°39' E 033°01'0 0.0
2017-Jun-28 05:30N 34°39' E 033°01'0 0.1
2017-Jun-28 05:00N 34°39' E 033°01'2 3.8
2017-Jun-28 04:31N 34°39' E 033°03'3 7.0
2017-Jun-28 04:00N 34°36' E 033°05'6 9.6
2017-Jun-28 03:24N 34°32' E 033°01'513.3
2017-Jun-28 03:00N 34°32' E 032°54'713.7
2017-Jun-28 02:30N 34°34' E 032°46'713.3
2017-Jun-28 02:00N 34°36' E 032°38'713.2
2017-Jun-28 01:30N 34°38' E 032°31'713.5
2017-Jun-28 01:00N 34°39' E 032°23'813.9
2017-Jun-28 00:26N 34°42' E 032°13'2813.9
2017-Jun-27 22:23N 34°50' E 031°40'513.6
2017-Jun-27 22:00N 34°51' E 031°34'713.6
2017-Jun-27 21:30N 34°53' E 031°26'713.5
2017-Jun-27 21:00N 34°55' E 031°18'913.5
2017-Jun-27 20:18N 34°58' E 031°07'413.7
2017-Jun-27 19:59N 34°59' E 031°02'713.8
2017-Jun-27 19:30N 35°00' E 030°54'35713.3
2017-Jun-26 16:33N 37°04' E 024°00'113.8
2017-Jun-26 16:30N 37°05' E 023°60'1013.5
2017-Jun-26 15:46N 37°14' E 023°55'413.6
2017-Jun-26 15:27N 37°18' E 023°53'1413.3
2017-Jun-26 14:25N 37°31' E 023°47'1212.8
2017-Jun-26 13:30N 37°42' E 023°41'713.0
2017-Jun-26 13:00N 37°48' E 023°38'612.5
2017-Jun-26 12:30N 37°54' E 023°37'4 7.2
2017-Jun-26 12:00N 37°57' E 023°36'0 0.4
2017-Jun-26 11:28N 37°57' E 023°36'0 0.0
2017-Jun-26 11:00N 37°57' E 023°36'0 0.0
2017-Jun-26 10:27N 37°57' E 023°36'0 0.0
2017-Jun-26 09:58N 37°57' E 023°36'0 0.0
2017-Jun-26 09:26N 37°57' E 023°36'0 0.0
2017-Jun-26 08:57N 37°57' E 023°36'0 0.0
2017-Jun-26 08:30N 37°57' E 023°36'0 0.0
2017-Jun-26 07:58N 37°57' E 023°36'0 0.0
2017-Jun-26 07:29N 37°57' E 023°36'0 0.0
2017-Jun-26 06:59N 37°57' E 023°36'0 0.0
2017-Jun-26 06:29N 37°57' E 023°36'0 0.0
2017-Jun-26 06:00N 37°57' E 023°36'0 0.0
2017-Jun-26 05:27N 37°57' E 023°36'0 0.0
2017-Jun-26 05:00N 37°57' E 023°36'0 0.0
2017-Jun-26 04:30N 37°57' E 023°36'0 0.0
2017-Jun-26 03:59N 37°57' E 023°36'0 0.0
2017-Jun-26 03:29N 37°57' E 023°36'0 0.0
2017-Jun-26 02:57N 37°57' E 023°36'0 0.0
2017-Jun-26 02:30N 37°57' E 023°36'0 0.0
2017-Jun-26 01:59N 37°57' E 023°36'0 0.0
2017-Jun-26 01:26N 37°57' E 023°36'0 0.0
2017-Jun-26 00:59N 37°57' E 023°36'0 0.0
2017-Jun-26 00:30N 37°57' E 023°36'0 0.0
2017-Jun-25 23:56N 37°57' E 023°36'0 0.0
2017-Jun-25 23:28N 37°57' E 023°36'0 0.0
2017-Jun-25 22:59N 37°57' E 023°36'0 0.0
2017-Jun-25 22:28N 37°57' E 023°36'0 0.0
2017-Jun-25 21:58N 37°57' E 023°36'0 0.0
2017-Jun-25 21:30N 37°57' E 023°36'0 0.0
2017-Jun-25 21:00N 37°57' E 023°36'0 0.0
2017-Jun-25 20:28N 37°57' E 023°36'0 0.0
2017-Jun-25 19:59N 37°57' E 023°36'0 0.0
2017-Jun-25 19:28N 37°57' E 023°36'0 0.0
2017-Jun-25 18:54N 37°57' E 023°36'0 0.0
2017-Jun-25 18:28N 37°57' E 023°36'0 0.0
2017-Jun-25 18:00N 37°57' E 023°36'0 0.0
2017-Jun-25 17:29N 37°57' E 023°36'0 0.0
2017-Jun-25 17:00N 37°57' E 023°36'0 0.0
2017-Jun-25 16:29N 37°57' E 023°36'0 0.0
2017-Jun-25 16:00N 37°57' E 023°36'0 0.0
2017-Jun-25 15:30N 37°57' E 023°36'0 0.0
2017-Jun-25 14:58N 37°57' E 023°36'0 0.0
2017-Jun-25 14:30N 37°57' E 023°36'0 0.0
2017-Jun-25 13:28N 37°57' E 023°36'0 0.0
2017-Jun-25 12:58N 37°57' E 023°36'0 0.0
2017-Jun-25 12:28N 37°57' E 023°36'0 0.0
2017-Jun-25 12:00N 37°57' E 023°36'0 0.0
2017-Jun-25 11:26N 37°57' E 023°36'0 0.3
2017-Jun-25 11:00N 37°57' E 023°36'3 5.3
2017-Jun-25 10:30N 37°55' E 023°37'0 0.5
2017-Jun-25 10:00N 37°55' E 023°37'2 3.2
2017-Jun-25 09:30N 37°53' E 023°37'4 7.6
2017-Jun-25 09:00N 37°50' E 023°39'510.2
2017-Jun-25 08:30N 37°45' E 023°42'611.3
2017-Jun-25 08:00N 37°40' E 023°46'5 9.7
2017-Jun-25 07:30N 37°36' E 023°48'0 0.2
2017-Jun-25 07:00N 37°36' E 023°48'0 0.5
2017-Jun-25 06:30N 37°36' E 023°48'0 0.4
2017-Jun-25 06:00N 37°36' E 023°48'0 0.2
2017-Jun-25 05:30N 37°36' E 023°48'0 0.2
2017-Jun-25 05:00N 37°36' E 023°48'0 0.1
2017-Jun-25 04:30N 37°36' E 023°48'0 0.1
2017-Jun-25 04:00N 37°36' E 023°48'0 0.1
2017-Jun-25 03:30N 37°37' E 023°48'0 0.1
2017-Jun-25 03:00N 37°37' E 023°48'0 0.1
2017-Jun-25 02:30N 37°37' E 023°48'0 0.0
2017-Jun-25 02:01N 37°37' E 023°48'0 0.1
2017-Jun-25 01:27N 37°37' E 023°48'0 0.2
2017-Jun-25 01:00N 37°36' E 023°48'1 1.4
2017-Jun-25 00:30N 37°36' E 023°48'2213.0
2017-Jun-24 22:49N 37°15' E 023°56'32212.7
2017-Jun-23 21:24N 36°07' E 030°28'614.9
2017-Jun-23 21:00N 36°10' E 030°34'714.8
2017-Jun-23 20:30N 36°15' E 030°41'715.0
2017-Jun-23 20:01N 36°23' E 030°41'815.2
2017-Jun-23 19:30N 36°30' E 030°41'714.7
2017-Jun-23 19:01N 36°37' E 030°41'714.6
2017-Jun-23 18:31N 36°45' E 030°39'611.6
2017-Jun-23 18:00N 36°50' E 030°37'0 0.6
2017-Jun-23 17:28N 36°50' E 030°37'0 0.0
2017-Jun-23 16:58N 36°50' E 030°37'0 0.0
2017-Jun-23 16:28N 36°50' E 030°37'0 0.0
2017-Jun-23 15:58N 36°50' E 030°37'0 0.0
2017-Jun-23 15:28N 36°50' E 030°37'0 0.0
2017-Jun-23 15:00N 36°50' E 030°37'0 0.0
2017-Jun-23 14:00N 36°50' E 030°37'0 0.0
2017-Jun-23 13:30N 36°50' E 030°37'0 0.0
2017-Jun-23 13:00N 36°50' E 030°37'0 0.0
2017-Jun-23 12:30N 36°50' E 030°37'0 0.0
2017-Jun-23 12:00N 36°50' E 030°37'0 0.0
2017-Jun-23 11:30N 36°50' E 030°37'0 0.0
2017-Jun-23 11:00N 36°50' E 030°37'0 0.0
2017-Jun-23 10:30N 36°50' E 030°37'0 0.0
2017-Jun-23 10:00N 36°50' E 030°37'0 0.0
2017-Jun-23 09:30N 36°50' E 030°37'0 0.0
2017-Jun-23 09:00N 36°50' E 030°37'0 0.0
2017-Jun-23 08:30N 36°50' E 030°37'0 0.0
2017-Jun-23 08:00N 36°50' E 030°37'0 0.0
2017-Jun-23 07:30N 36°50' E 030°37'0 0.0
2017-Jun-23 07:00N 36°50' E 030°37'0 0.0
2017-Jun-23 06:30N 36°50' E 030°37'0 0.0
2017-Jun-23 06:00N 36°50' E 030°37'0 0.0
2017-Jun-23 05:24N 36°50' E 030°37'0 0.0
2017-Jun-23 05:00N 36°50' E 030°37'0 0.0
2017-Jun-23 04:28N 36°50' E 030°37'0 0.0
2017-Jun-23 03:58N 36°50' E 030°37'0 0.0
2017-Jun-22 23:08N 36°50' E 030°37'0 0.0
2017-Jun-22 22:59N 36°50' E 030°37'0 0.0
2017-Jun-22 22:29N 36°50' E 030°37'  

Dump ship's entire track history